createdAt,value
2023-02-25T00:01:57.772Z,22.75
2023-02-25T00:04:31.550Z,29.48
2023-02-25T00:06:59.754Z,25.95
2023-02-25T00:09:28.429Z,21.73
2023-02-25T00:11:56.557Z,19.15
2023-02-25T00:14:24.643Z,20.85
2023-02-25T00:16:56.271Z,22.73
2023-02-25T00:19:25.555Z,24.30
2023-02-25T00:21:53.699Z,23.23
2023-02-25T00:24:21.632Z,25.70
2023-02-25T00:26:50.440Z,31.65
2023-02-25T00:29:18.589Z,31.20
2023-02-25T00:31:47.062Z,31.38
2023-02-25T00:34:17.914Z,31.00
2023-02-25T00:36:46.110Z,27.90
2023-02-25T00:39:14.559Z,30.80
2023-02-25T00:41:42.617Z,28.88
2023-02-25T00:44:10.542Z,27.55
2023-02-25T00:46:39.255Z,27.98
2023-02-25T00:49:07.481Z,30.33
2023-02-25T00:51:35.602Z,24.63
2023-02-25T00:54:03.701Z,24.25
2023-02-25T00:56:31.671Z,23.85
2023-02-25T00:59:00.136Z,23.45
2023-02-25T01:01:30.774Z,23.88
2023-02-25T01:03:59.414Z,25.05
2023-02-25T01:06:29.742Z,23.00
2023-02-25T01:08:59.243Z,21.52
2023-02-25T01:11:29.871Z,24.90
2023-02-25T01:14:01.219Z,25.92
2023-02-25T01:16:31.780Z,20.70
2023-02-25T01:19:04.021Z,21.75
2023-02-25T01:21:46.717Z,24.05
2023-02-25T01:24:23.217Z,21.70
2023-02-25T01:26:53.634Z,20.63
2023-02-25T01:29:31.016Z,22.52
2023-02-25T01:32:02.228Z,20.00
2023-02-25T01:34:31.619Z,18.88
2023-02-25T01:37:02.405Z,17.63
2023-02-25T01:39:32.294Z,18.48
2023-02-25T01:42:04.336Z,18.48
2023-02-25T01:45:00.229Z,18.80
2023-02-25T01:47:33.908Z,17.23
2023-02-25T01:50:02.471Z,18.10
2023-02-25T01:52:30.478Z,15.35
2023-02-25T01:54:59.337Z,16.67
2023-02-25T01:57:27.339Z,16.33
2023-02-25T01:59:55.812Z,17.42
2023-02-25T02:02:28.547Z,16.67
2023-02-25T02:04:56.922Z,18.83
2023-02-25T02:07:24.995Z,20.52
2023-02-25T02:10:00.111Z,20.08
2023-02-25T02:12:33.342Z,22.67
2023-02-25T02:15:05.336Z,22.60
2023-02-25T02:17:49.781Z,22.55
2023-02-25T02:20:39.437Z,24.80
2023-02-25T02:23:34.227Z,26.20
2023-02-25T02:26:46.307Z,24.77
2023-02-25T02:30:01.924Z,23.63
2023-02-25T02:32:39.293Z,24.13
2023-02-25T02:35:13.052Z,24.33
2023-02-25T02:37:41.159Z,20.73
2023-02-25T02:40:52.708Z,19.08
2023-02-25T02:43:26.447Z,17.75
2023-02-25T02:46:04.067Z,17.27
2023-02-25T02:48:50.007Z,18.70
2023-02-25T02:51:25.673Z,16.98
2023-02-25T02:53:57.924Z,18.67
2023-02-25T02:56:28.751Z,19.07
2023-02-25T02:59:08.553Z,18.42
2023-02-25T03:01:44.510Z,18.20
2023-02-25T03:04:20.333Z,18.13
2023-02-25T03:06:52.524Z,19.88
2023-02-25T03:09:25.610Z,20.52
2023-02-25T03:11:53.632Z,18.85
2023-02-25T03:14:22.292Z,18.23
2023-02-25T03:17:05.901Z,16.85
2023-02-25T03:19:56.840Z,17.80
2023-02-25T03:22:33.607Z,17.13
2023-02-25T03:25:12.804Z,17.70
2023-02-25T03:27:43.772Z,19.15
2023-02-25T03:30:16.369Z,20.20
2023-02-25T03:32:49.837Z,22.00
2023-02-25T03:35:20.854Z,17.60
2023-02-25T03:37:52.036Z,17.25
2023-02-25T03:40:21.809Z,15.27
2023-02-25T03:42:58.809Z,16.33
2023-02-25T03:45:28.606Z,16.77
2023-02-25T03:47:59.260Z,17.20
2023-02-25T03:50:34.030Z,17.50
2023-02-25T03:53:05.603Z,14.88
2023-02-25T03:56:41.351Z,16.13
2023-02-25T03:59:09.308Z,15.48
2023-02-25T04:01:38.705Z,14.98
2023-02-25T04:04:06.805Z,15.57
2023-02-25T04:06:35.335Z,16.63
2023-02-25T04:09:04.197Z,15.90
2023-02-25T04:11:32.657Z,16.35
2023-02-25T04:14:00.552Z,15.45
2023-02-25T04:16:29.001Z,15.40
2023-02-25T04:18:59.406Z,14.23
2023-02-25T04:21:35.288Z,15.43
2023-02-25T04:24:05.971Z,13.32
2023-02-25T04:26:34.827Z,14.18
2023-02-25T04:29:03.199Z,13.27
2023-02-25T04:31:31.296Z,10.77
2023-02-25T04:33:59.388Z,11.02
2023-02-25T04:36:29.289Z,11.45
2023-02-25T04:38:58.573Z,11.48
2023-02-25T04:41:31.268Z,10.50
2023-02-25T04:44:00.394Z,10.45
2023-02-25T04:46:28.328Z,10.07
2023-02-25T04:48:56.355Z,9.80
2023-02-25T04:51:24.364Z,10.70
2023-02-25T04:53:52.404Z,9.93
2023-02-25T04:56:20.726Z,10.48
2023-02-25T04:58:48.775Z,9.80
2023-02-25T05:01:16.670Z,11.23
2023-02-25T05:03:44.565Z,10.57
2023-02-25T05:06:12.564Z,11.20
2023-02-25T05:08:41.365Z,11.30
2023-02-25T05:11:09.328Z,12.57
2023-02-25T05:13:37.287Z,12.90
2023-02-25T05:16:11.064Z,13.90
2023-02-25T05:18:40.994Z,16.70
2023-02-25T05:21:12.289Z,15.50
2023-02-25T05:23:42.505Z,16.67
2023-02-25T05:26:11.508Z,13.20
2023-02-25T05:28:39.526Z,10.23
2023-02-25T05:31:09.525Z,9.55
2023-02-25T05:33:39.176Z,12.98
2023-02-25T05:36:09.158Z,10.50
2023-02-25T05:38:37.695Z,11.25
2023-02-25T05:41:06.833Z,10.57
2023-02-25T05:43:35.944Z,11.45
2023-02-25T05:46:05.254Z,11.23
2023-02-25T05:48:33.284Z,13.75
2023-02-25T05:51:17.219Z,11.75
2023-02-25T05:53:45.772Z,11.00
2023-02-25T05:56:15.856Z,12.60
2023-02-25T05:58:44.237Z,12.38
2023-02-25T06:01:14.149Z,12.98
2023-02-25T06:03:44.148Z,14.77
2023-02-25T06:06:13.858Z,14.63
2023-02-25T06:08:46.052Z,14.18
2023-02-25T06:11:22.894Z,14.40
2023-02-25T06:13:53.907Z,24.70
2023-02-25T06:16:22.757Z,16.83
2023-02-25T06:18:51.718Z,15.60
2023-02-25T06:21:20.124Z,19.85
2023-02-25T06:23:50.467Z,19.33
2023-02-25T06:26:19.447Z,18.08
2023-02-25T06:28:47.581Z,19.52
2023-02-25T06:31:18.192Z,17.00
2023-02-25T06:33:47.024Z,17.70
2023-02-25T06:36:15.854Z,18.40
2023-02-25T06:38:46.173Z,17.05
2023-02-25T06:41:17.783Z,18.02
2023-02-25T06:43:46.732Z,18.05
2023-02-25T06:46:15.392Z,18.00
2023-02-25T06:48:43.391Z,17.27
2023-02-25T06:51:12.935Z,15.85
2023-02-25T06:53:42.697Z,16.58
2023-02-25T06:56:13.064Z,15.50
2023-02-25T06:58:42.759Z,17.42
2023-02-25T07:01:14.052Z,17.30
2023-02-25T07:03:46.287Z,18.23
2023-02-25T07:06:16.060Z,16.23
2023-02-25T07:08:45.505Z,16.20
2023-02-25T07:11:21.638Z,15.43
2023-02-25T07:13:50.540Z,18.38
2023-02-25T07:16:18.937Z,18.60
2023-02-25T07:18:47.461Z,19.23
2023-02-25T07:21:16.189Z,18.63
2023-02-25T07:23:45.150Z,20.40
2023-02-25T07:26:15.387Z,16.15
2023-02-25T07:28:44.304Z,18.27
2023-02-25T07:31:15.714Z,18.10
2023-02-25T07:33:44.892Z,18.00
2023-02-25T07:36:13.406Z,17.90
2023-02-25T07:38:42.069Z,16.48
2023-02-25T07:41:12.597Z,17.65
2023-02-25T07:43:41.096Z,17.50
2023-02-25T07:46:10.869Z,17.50
2023-02-25T07:48:42.263Z,17.08
2023-02-25T07:51:13.350Z,22.42
2023-02-25T07:53:41.314Z,19.48
2023-02-25T07:56:10.222Z,20.58
2023-02-25T07:58:39.349Z,21.02
2023-02-25T08:01:09.122Z,19.83
2023-02-25T08:03:38.375Z,20.98
2023-02-25T08:06:08.415Z,22.00
2023-02-25T08:08:37.710Z,20.05
2023-02-25T08:11:11.537Z,20.98
2023-02-25T08:13:41.677Z,23.13
2023-02-25T08:16:13.728Z,23.90
2023-02-25T08:18:42.974Z,26.40
2023-02-25T08:21:12.200Z,28.38
2023-02-25T08:23:40.310Z,21.35
2023-02-25T08:26:10.183Z,30.15
2023-02-25T08:28:38.318Z,22.55
2023-02-25T08:31:09.072Z,22.25
2023-02-25T08:33:39.070Z,28.75
2023-02-25T08:36:10.504Z,31.58
2023-02-25T08:38:39.141Z,28.83
2023-02-25T08:41:08.412Z,34.55
2023-02-25T08:43:37.973Z,28.08
2023-02-25T08:46:11.289Z,36.60
2023-02-25T08:48:41.153Z,45.53
2023-02-25T08:51:10.233Z,43.28
2023-02-25T08:53:41.011Z,40.33
2023-02-25T08:56:12.691Z,31.02
2023-02-25T08:58:41.636Z,31.17
2023-02-25T09:01:15.854Z,35.63
2023-02-25T09:03:53.342Z,43.42
2023-02-25T09:06:26.734Z,40.97
2023-02-25T09:11:24.682Z,36.75
2023-02-25T09:13:54.385Z,40.95
2023-02-25T09:16:22.532Z,39.65
2023-02-25T09:18:52.262Z,43.05
2023-02-25T09:21:21.800Z,39.35
2023-02-25T09:23:51.514Z,39.90
2023-02-25T09:26:21.744Z,29.92
2023-02-25T09:28:50.156Z,31.55
2023-02-25T09:31:18.992Z,27.90
2023-02-25T09:33:47.244Z,27.10
2023-02-25T09:36:17.542Z,27.88
2023-02-25T09:38:47.847Z,28.10
2023-02-25T09:41:25.561Z,27.38
2023-02-25T09:43:59.840Z,26.05
2023-02-25T09:46:30.792Z,26.13
2023-02-25T09:49:16.250Z,26.58
2023-02-25T09:51:48.665Z,29.60
2023-02-25T09:54:41.648Z,34.35
2023-02-25T09:57:14.759Z,52.40
2023-02-25T09:59:43.255Z,50.42
2023-02-25T10:02:49.401Z,41.75
2023-02-25T10:05:25.442Z,47.65
2023-02-25T10:08:09.315Z,32.53
2023-02-25T10:11:01.900Z,33.85
2023-02-25T10:13:39.057Z,24.17
2023-02-25T10:16:26.691Z,46.25
2023-02-25T10:19:07.112Z,19.45
2023-02-25T10:21:49.929Z,17.55
2023-02-25T10:24:35.075Z,24.10
2023-02-25T10:27:16.246Z,23.42
2023-02-25T10:29:49.869Z,22.55
2023-02-25T10:32:20.222Z,21.65
2023-02-25T10:34:51.505Z,22.95
2023-02-25T10:37:32.624Z,22.00
2023-02-25T10:40:04.623Z,23.15
2023-02-25T10:42:34.012Z,23.77
2023-02-25T10:45:14.973Z,21.15
2023-02-25T10:47:49.173Z,21.30
2023-02-25T10:50:29.755Z,20.27
2023-02-25T10:53:18.102Z,20.80
2023-02-25T10:55:54.969Z,22.27
2023-02-25T10:58:40.842Z,22.10
2023-02-25T11:01:15.508Z,20.67
2023-02-25T11:03:59.094Z,19.15
2023-02-25T11:06:36.054Z,28.67
2023-02-25T11:09:29.865Z,25.08
2023-02-25T11:12:10.894Z,43.42
2023-02-25T11:14:40.033Z,18.75
2023-02-25T11:17:14.844Z,15.73
2023-02-25T11:19:47.126Z,60.40
2023-02-25T11:22:22.342Z,28.63
2023-02-25T11:25:00.018Z,20.90
2023-02-25T11:27:39.475Z,14.90
2023-02-25T11:30:08.367Z,12.75
2023-02-25T11:32:43.287Z,13.35
2023-02-25T11:35:30.762Z,14.57
2023-02-25T11:37:59.796Z,18.92
2023-02-25T11:40:33.676Z,24.10
2023-02-25T11:43:07.592Z,9.68
2023-02-25T11:45:47.209Z,13.70
2023-02-25T11:48:29.426Z,12.57
2023-02-25T11:51:21.732Z,23.00
2023-02-25T11:53:52.654Z,12.30
2023-02-25T11:56:35.766Z,11.10
2023-02-25T11:59:14.057Z,22.63
2023-02-25T12:01:57.068Z,15.50
2023-02-25T12:05:01.195Z,14.05
2023-02-25T12:07:38.200Z,17.92
2023-02-25T12:10:21.554Z,12.43
2023-02-25T12:16:04.208Z,29.50
2023-02-25T12:18:32.971Z,11.18
2023-02-25T12:21:21.625Z,11.25
2023-02-25T12:24:18.633Z,16.50
2023-02-25T12:27:24.665Z,10.32
2023-02-25T12:30:22.751Z,10.13
2023-02-25T12:33:10.568Z,11.70
2023-02-25T12:36:04.665Z,15.02
2023-02-25T12:38:39.060Z,25.83
2023-02-25T12:41:48.782Z,8.88
2023-02-25T12:44:54.526Z,9.10
2023-02-25T12:47:57.730Z,10.73
2023-02-25T12:50:53.975Z,8.30
2023-02-25T12:53:40.717Z,8.23
2023-02-25T12:56:47.098Z,9.55
2023-02-25T12:59:15.163Z,10.02
2023-02-25T13:01:52.174Z,11.85
2023-02-25T13:05:04.904Z,25.50
2023-02-25T13:07:44.662Z,93.82
2023-02-25T13:11:19.130Z,12.73
2023-02-25T13:14:14.884Z,51.40
2023-02-25T13:17:10.584Z,9.43
2023-02-25T13:19:57.351Z,10.38
2023-02-25T13:22:49.743Z,9.35
2023-02-25T13:25:21.423Z,10.10
2023-02-25T13:28:06.537Z,9.52
2023-02-25T13:30:41.235Z,10.02
2023-02-25T13:33:18.204Z,7.05
2023-02-25T13:36:24.077Z,154.75
2023-02-25T13:39:34.311Z,12.05
2023-02-25T13:42:25.646Z,9.73
2023-02-25T13:45:27.592Z,10.80
2023-02-25T13:48:04.372Z,9.73
2023-02-25T13:50:47.018Z,9.30
2023-02-25T13:53:41.057Z,10.25
2023-02-25T13:56:28.543Z,44.15
2023-02-25T13:59:15.647Z,34.05
2023-02-25T14:02:11.294Z,22.95
2023-02-25T14:04:55.427Z,13.13
2023-02-25T14:07:38.610Z,9.73
2023-02-25T14:12:59.097Z,10.68
2023-02-25T14:15:42.749Z,15.02
2023-02-25T14:18:44.563Z,9.48
2023-02-25T14:21:32.320Z,9.93
2023-02-25T14:24:15.307Z,9.98
2023-02-25T14:26:53.710Z,9.02
2023-02-25T14:29:46.705Z,10.00
2023-02-25T14:32:26.844Z,10.82
2023-02-25T14:35:37.622Z,10.38
2023-02-25T14:38:21.337Z,11.63
2023-02-25T14:40:52.439Z,12.30
2023-02-25T14:43:34.276Z,10.88
2023-02-25T14:46:37.496Z,11.55
2023-02-25T14:49:25.832Z,9.90
2023-02-25T14:52:19.429Z,10.02
2023-02-25T14:55:07.607Z,9.67
2023-02-25T14:57:43.969Z,9.18
2023-02-25T15:00:39.349Z,9.75
2023-02-25T15:03:22.687Z,9.30
2023-02-25T15:06:06.836Z,23.58
2023-02-25T15:08:41.912Z,12.25
2023-02-25T15:11:50.394Z,11.10
2023-02-25T15:14:34.132Z,11.07
2023-02-25T15:17:26.768Z,12.82
2023-02-25T15:19:58.054Z,13.23
2023-02-25T15:22:29.638Z,15.32
2023-02-25T15:25:24.275Z,15.63
2023-02-25T15:28:00.280Z,16.02
2023-02-25T15:31:08.651Z,13.88
2023-02-25T15:33:37.068Z,13.05
2023-02-25T15:36:18.475Z,14.63
2023-02-25T15:38:51.937Z,13.27
2023-02-25T15:41:29.420Z,13.25
2023-02-25T15:44:09.063Z,13.93
2023-02-25T15:46:37.307Z,18.85
2023-02-25T15:49:33.274Z,14.27
2023-02-25T15:52:04.591Z,13.73
2023-02-25T15:54:37.852Z,15.10
2023-02-25T15:57:09.849Z,19.73
2023-02-25T15:59:45.766Z,39.58
2023-02-25T16:02:30.111Z,31.63
2023-02-25T16:05:10.141Z,76.95
2023-02-25T16:07:43.953Z,34.63
2023-02-25T16:10:45.007Z,32.40
2023-02-25T16:13:22.242Z,24.30
2023-02-25T16:15:54.023Z,29.48
2023-02-25T16:18:33.762Z,30.98
2023-02-25T16:21:08.992Z,28.52
2023-02-25T16:23:40.836Z,27.10
2023-02-25T16:26:14.106Z,28.92
2023-02-25T16:31:27.046Z,45.30
2023-02-25T16:34:19.659Z,47.85
2023-02-25T16:37:17.370Z,36.33
2023-02-25T16:39:45.392Z,56.30
2023-02-25T16:42:17.745Z,52.03
2023-02-25T16:44:56.070Z,45.63
2023-02-25T16:47:30.644Z,32.85
2023-02-25T16:50:02.145Z,33.25
2023-02-25T16:52:34.907Z,30.40
2023-02-25T16:55:07.169Z,42.67
2023-02-25T16:57:36.769Z,42.38
2023-02-25T17:00:17.222Z,41.72
2023-02-25T17:02:50.878Z,39.30
2023-02-25T17:05:30.464Z,50.95
2023-02-25T17:08:02.352Z,53.28
2023-02-25T17:10:53.247Z,41.65
2023-02-25T17:13:43.370Z,36.53
2023-02-25T17:16:38.404Z,33.40
2023-02-25T17:19:10.399Z,30.13
2023-02-25T17:21:46.661Z,42.55
2023-02-25T17:24:19.257Z,40.72
2023-02-25T17:26:51.307Z,36.88
2023-02-25T17:29:20.374Z,37.90
2023-02-25T17:31:54.570Z,67.72
2023-02-25T17:34:35.269Z,53.17
2023-02-25T17:37:09.230Z,56.78
2023-02-25T17:39:39.537Z,45.88
2023-02-25T17:42:29.836Z,42.60
2023-02-25T17:45:01.114Z,40.00
2023-02-25T17:47:35.319Z,45.95
2023-02-25T17:50:26.089Z,57.08
2023-02-25T17:52:54.694Z,54.60
2023-02-25T17:55:34.483Z,54.33
2023-02-25T17:58:03.586Z,56.40
2023-02-25T18:00:37.078Z,49.13
2023-02-25T18:03:08.262Z,43.33
2023-02-25T18:05:50.388Z,43.80
2023-02-25T18:08:26.764Z,41.92
2023-02-25T18:10:58.188Z,55.30
2023-02-25T18:13:34.081Z,40.92
2023-02-25T18:16:30.644Z,44.55
2023-02-25T18:19:04.508Z,39.10
2023-02-25T18:21:43.120Z,37.58
2023-02-25T18:24:23.722Z,34.55
2023-02-25T18:27:21.778Z,42.88
2023-02-25T18:29:49.848Z,49.72
2023-02-25T18:32:18.394Z,36.95
2023-02-25T18:34:47.267Z,42.17
2023-02-25T18:37:18.179Z,42.08
2023-02-25T18:39:50.735Z,52.08
2023-02-25T18:42:19.065Z,37.72
2023-02-25T18:44:57.825Z,37.25
2023-02-25T18:47:29.862Z,40.65
2023-02-25T18:49:58.014Z,48.13
2023-02-25T18:52:26.157Z,67.65
2023-02-25T18:54:54.544Z,46.33
2023-02-25T18:57:25.671Z,43.15
2023-02-25T18:59:55.269Z,48.35
2023-02-25T19:02:25.880Z,48.67
2023-02-25T19:04:55.469Z,49.60
2023-02-25T19:07:28.464Z,54.67
2023-02-25T19:09:57.782Z,55.83
2023-02-25T19:12:28.345Z,54.20
2023-02-25T19:15:05.491Z,67.22
2023-02-25T19:17:34.391Z,58.75
2023-02-25T19:20:02.963Z,52.85
2023-02-25T19:22:30.934Z,54.95
2023-02-25T19:24:59.394Z,56.22
2023-02-25T19:27:29.945Z,56.28
2023-02-25T19:29:59.987Z,53.42
2023-02-25T19:32:28.053Z,56.55
2023-02-25T19:34:56.497Z,63.67
2023-02-25T19:37:24.742Z,66.28
2023-02-25T19:39:52.807Z,62.63
2023-02-25T19:42:21.660Z,67.05
2023-02-25T19:44:49.718Z,66.07
2023-02-25T19:47:17.890Z,63.75
2023-02-25T19:49:46.336Z,62.85
2023-02-25T19:52:15.396Z,64.20
2023-02-25T19:54:43.483Z,69.43
2023-02-25T19:57:11.762Z,62.67
2023-02-25T19:59:39.979Z,69.03
2023-02-25T20:02:10.186Z,65.30
2023-02-25T20:04:38.676Z,68.32
2023-02-25T20:07:10.375Z,70.38
2023-02-25T20:09:38.565Z,68.07
2023-02-25T20:12:07.461Z,79.15
2023-02-25T20:14:36.105Z,77.55
2023-02-25T20:17:05.165Z,69.13
2023-02-25T20:19:33.469Z,70.43
2023-02-25T20:22:05.029Z,68.40
2023-02-25T20:24:33.987Z,63.35
2023-02-25T20:27:02.422Z,65.85
2023-02-25T20:29:30.602Z,56.95
2023-02-25T20:31:59.260Z,49.83
2023-02-25T20:34:28.758Z,34.10
2023-02-25T20:37:10.981Z,29.85
2023-02-25T20:39:48.039Z,27.52
2023-02-25T20:42:20.214Z,25.23
2023-02-25T20:44:51.554Z,24.83
2023-02-25T20:47:37.566Z,24.70
2023-02-25T20:50:07.110Z,26.92
2023-02-25T20:52:35.779Z,23.27
2023-02-25T20:55:05.958Z,27.80
2023-02-25T20:57:35.788Z,26.05
2023-02-25T21:00:06.315Z,23.35
2023-02-25T21:02:34.921Z,23.70
2023-02-25T21:05:03.522Z,25.05
2023-02-25T21:07:32.995Z,24.55
2023-02-25T21:10:00.954Z,24.90
2023-02-25T21:12:29.465Z,32.90
2023-02-25T21:14:57.460Z,31.95
2023-02-25T21:17:31.520Z,31.77
2023-02-25T21:19:59.454Z,33.40
2023-02-25T21:22:27.787Z,31.75
2023-02-25T21:24:57.885Z,35.75
2023-02-25T21:27:29.397Z,40.75
2023-02-25T21:29:57.930Z,40.47
2023-02-25T21:32:26.300Z,40.28
2023-02-25T21:34:54.874Z,40.83
2023-02-25T21:37:22.933Z,38.92
2023-02-25T21:39:51.716Z,39.58
2023-02-25T21:42:20.548Z,38.65
2023-02-25T21:44:48.864Z,40.90
2023-02-25T21:47:16.966Z,39.28
2023-02-25T21:49:45.709Z,40.53
2023-02-25T21:52:14.054Z,40.83
2023-02-25T21:54:42.000Z,50.40
2023-02-25T21:57:11.293Z,49.97
2023-02-25T21:59:40.785Z,54.88
2023-02-25T22:02:10.646Z,58.25
2023-02-25T22:04:39.703Z,53.75
2023-02-25T22:07:07.863Z,59.58
2023-02-25T22:09:36.695Z,62.25
2023-02-25T22:12:04.900Z,56.50
2023-02-25T22:14:33.087Z,55.50
2023-02-25T22:17:02.222Z,48.63
2023-02-25T22:19:30.577Z,51.92
2023-02-25T22:21:58.570Z,43.53
2023-02-25T22:24:26.662Z,54.80
2023-02-25T22:26:54.827Z,45.05
2023-02-25T22:29:22.926Z,48.67
2023-02-25T22:31:51.845Z,51.63
2023-02-25T22:34:19.895Z,53.40
2023-02-25T22:36:48.351Z,48.75
2023-02-25T22:39:16.477Z,46.03
2023-02-25T22:41:45.056Z,42.13
2023-02-25T22:44:13.317Z,41.80
2023-02-25T22:46:41.700Z,38.58
2023-02-25T22:49:12.423Z,37.03
2023-02-25T22:51:43.205Z,28.00
2023-02-25T22:54:18.861Z,25.75
2023-02-25T22:56:47.930Z,23.10
2023-02-25T22:59:41.973Z,27.35
2023-02-25T23:02:10.028Z,26.48
2023-02-25T23:04:38.081Z,28.20
2023-02-25T23:07:06.479Z,27.42
2023-02-25T23:09:34.624Z,26.92
2023-02-25T23:12:03.741Z,23.27
2023-02-25T23:14:32.372Z,26.63
2023-02-25T23:17:00.894Z,24.35
2023-02-25T23:19:31.813Z,26.75
2023-02-25T23:21:59.951Z,24.13
2023-02-25T23:24:27.985Z,19.95
2023-02-25T23:27:02.761Z,21.65
2023-02-25T23:29:31.040Z,18.17
2023-02-25T23:31:59.086Z,19.42
2023-02-25T23:34:27.040Z,17.35
2023-02-25T23:36:56.716Z,16.05
2023-02-25T23:39:25.900Z,13.23
2023-02-25T23:41:55.303Z,15.55
2023-02-25T23:44:23.501Z,13.25
2023-02-25T23:46:51.554Z,14.25
2023-02-25T23:49:19.790Z,14.07
2023-02-25T23:51:48.798Z,13.90
2023-02-25T23:54:19.614Z,10.32
2023-02-25T23:56:49.151Z,9.55
2023-02-25T23:59:17.979Z,9.98
